sensor_id;sensor_type;location;lat;lon;timestamp;temperature;humidity
1800;DHT22;919;48.274;12.292;2023-03-01T00:00:13;1.40;99.90
1800;DHT22;919;48.274;12.292;2023-03-01T00:02:40;1.40;99.90
1800;DHT22;919;48.274;12.292;2023-03-01T00:05:07;1.40;99.90
1800;DHT22;919;48.274;12.292;2023-03-01T00:07:34;1.40;99.90
1800;DHT22;919;48.274;12.292;2023-03-01T00:10:02;1.40;99.90
1800;DHT22;919;48.274;12.292;2023-03-01T00:12:29;1.40;99.90
1800;DHT22;919;48.274;12.292;2023-03-01T00:14:57;1.40;99.90
1800;DHT22;919;48.274;12.292;2023-03-01T00:17:24;1.40;99.90
1800;DHT22;919;48.274;12.292;2023-03-01T00:19:50;1.40;99.90
1800;DHT22;919;48.274;12.292;2023-03-01T00:22:17;1.40;99.90
1800;DHT22;919;48.274;12.292;2023-03-01T00:24:44;1.40;99.90
1800;DHT22;919;48.274;12.292;2023-03-01T00:27:12;1.40;99.90
1800;DHT22;919;48.274;12.292;2023-03-01T00:29:38;1.40;99.90
1800;DHT22;919;48.274;12.292;2023-03-01T00:32:05;1.40;99.90
1800;DHT22;919;48.274;12.292;2023-03-01T00:34:32;1.30;99.90
1800;DHT22;919;48.274;12.292;2023-03-01T00:36:58;1.30;99.90
1800;DHT22;919;48.274;12.292;2023-03-01T00:39:31;1.30;99.90
1800;DHT22;919;48.274;12.292;2023-03-01T00:41:58;1.30;99.90
1800;DHT22;919;48.274;12.292;2023-03-01T00:44:26;1.30;99.90
1800;DHT22;919;48.274;12.292;2023-03-01T00:46:53;1.30;99.90
1800;DHT22;919;48.274;12.292;2023-03-01T00:49:20;1.30;99.90
1800;DHT22;919;48.274;12.292;2023-03-01T00:51:47;1.30;99.90
1800;DHT22;919;48.274;12.292;2023-03-01T00:54:13;1.30;99.90
1800;DHT22;919;48.274;12.292;2023-03-01T00:56:40;1.20;99.90
1800;DHT22;919;48.274;12.292;2023-03-01T00:59:06;1.20;99.90
1800;DHT22;919;48.274;12.292;2023-03-01T01:01:34;1.10;99.90
1800;DHT22;919;48.274;12.292;2023-03-01T01:04:03;1.20;99.90
1800;DHT22;919;48.274;12.292;2023-03-01T01:06:32;1.20;99.90
1800;DHT22;919;48.274;12.292;2023-03-01T01:08:59;1.10;99.90
1800;DHT22;919;48.274;12.292;2023-03-01T01:11:28;1.10;99.90
1800;DHT22;919;48.274;12.292;2023-03-01T01:13:55;1.10;99.90
1800;DHT22;919;48.274;12.292;2023-03-01T01:16:24;1.10;99.90
1800;DHT22;919;48.274;12.292;2023-03-01T01:18:52;1.10;99.90
1800;DHT22;919;48.274;12.292;2023-03-01T01:21:21;1.10;99.90
1800;DHT22;919;48.274;12.292;2023-03-01T01:23:49;1.10;99.90
1800;DHT22;919;48.274;12.292;2023-03-01T01:26:19;1.00;99.90
1800;DHT22;919;48.274;12.292;2023-03-01T01:28:46;1.00;99.90
1800;DHT22;919;48.274;12.292;2023-03-01T01:31:13;0.90;99.90
1800;DHT22;919;48.274;12.292;2023-03-01T01:33:40;0.90;99.90
1800;DHT22;919;48.274;12.292;2023-03-01T01:36:08;0.90;99.90
1800;DHT22;919;48.274;12.292;2023-03-01T01:38:36;0.90;99.90
1800;DHT22;919;48.274;12.292;2023-03-01T01:41:04;0.90;99.90
1800;DHT22;919;48.274;12.292;2023-03-01T01:43:33;0.80;99.90
1800;DHT22;919;48.274;12.292;2023-03-01T01:46:02;0.80;99.90
1800;DHT22;919;48.274;12.292;2023-03-01T01:48:37;0.80;99.90
1800;DHT22;919;48.274;12.292;2023-03-01T01:51:11;0.80;99.90
1800;DHT22;919;48.274;12.292;2023-03-01T01:53:39;0.80;99.90
1800;DHT22;919;48.274;12.292;2023-03-01T01:56:08;0.70;99.90
1800;DHT22;919;48.274;12.292;2023-03-01T01:58:37;0.70;99.90
1800;DHT22;919;48.274;12.292;2023-03-01T02:01:05;0.60;99.90
1800;DHT22;919;48.274;12.292;2023-03-01T02:03:33;0.60;99.90
1800;DHT22;919;48.274;12.292;2023-03-01T02:06:05;0.50;99.90
1800;DHT22;919;48.274;12.292;2023-03-01T02:08:37;0.40;99.90
1800;DHT22;919;48.274;12.292;2023-03-01T02:11:05;0.40;99.90
1800;DHT22;919;48.274;12.292;2023-03-01T02:13:33;0.30;99.90
1800;DHT22;919;48.274;12.292;2023-03-01T02:16:03;0.20;99.90
1800;DHT22;919;48.274;12.292;2023-03-01T02:18:30;0.10;99.90
1800;DHT22;919;48.274;12.292;2023-03-01T02:21:14;0.10;99.90
1800;DHT22;919;48.274;12.292;2023-03-01T02:23:45;0.00;99.90
1800;DHT22;919;48.274;12.292;2023-03-01T02:26:18;0.00;99.90
1800;DHT22;919;48.274;12.292;2023-03-01T02:28:47;-0.10;99.90
1800;DHT22;919;48.274;12.292;2023-03-01T02:31:16;-0.20;99.90
1800;DHT22;919;48.274;12.292;2023-03-01T02:34:01;-0.20;99.90
1800;DHT22;919;48.274;12.292;2023-03-01T02:36:39;-0.30;99.90
1800;DHT22;919;48.274;12.292;2023-03-01T02:39:08;-0.30;99.90
1800;DHT22;919;48.274;12.292;2023-03-01T02:41:42;-0.40;99.90
1800;DHT22;919;48.274;12.292;2023-03-01T02:44:10;-0.40;99.90
1800;DHT22;919;48.274;12.292;2023-03-01T02:46:43;-0.50;99.90
1800;DHT22;919;48.274;12.292;2023-03-01T02:49:20;-0.50;99.90
1800;DHT22;919;48.274;12.292;2023-03-01T02:51:55;-0.60;99.90
1800;DHT22;919;48.274;12.292;2023-03-01T02:54:27;-0.50;99.90
1800;DHT22;919;48.274;12.292;2023-03-01T02:56:55;-0.50;99.90
1800;DHT22;919;48.274;12.292;2023-03-01T02:59:27;-0.60;99.90
1800;DHT22;919;48.274;12.292;2023-03-01T03:01:55;-0.60;99.90
1800;DHT22;919;48.274;12.292;2023-03-01T03:04:22;-0.70;99.90
1800;DHT22;919;48.274;12.292;2023-03-01T03:06:50;-0.70;99.90
1800;DHT22;919;48.274;12.292;2023-03-01T03:09:17;-0.70;99.90
1800;DHT22;919;48.274;12.292;2023-03-01T03:11:44;-0.80;99.90
1800;DHT22;919;48.274;12.292;2023-03-01T03:14:13;-0.80;99.90
1800;DHT22;919;48.274;12.292;2023-03-01T03:16:43;-0.90;99.90
1800;DHT22;919;48.274;12.292;2023-03-01T03:19:10;-0.80;99.90
1800;DHT22;919;48.274;12.292;2023-03-01T03:21:37;-0.80;99.90
1800;DHT22;919;48.274;12.292;2023-03-01T03:24:05;-0.80;99.90
1800;DHT22;919;48.274;12.292;2023-03-01T03:26:32;-0.80;99.90
1800;DHT22;919;48.274;12.292;2023-03-01T03:28:58;-0.80;99.90
1800;DHT22;919;48.274;12.292;2023-03-01T03:31:26;-0.90;99.90
1800;DHT22;919;48.274;12.292;2023-03-01T03:33:54;-0.90;99.90
1800;DHT22;919;48.274;12.292;2023-03-01T03:36:23;-1.00;99.90
1800;DHT22;919;48.274;12.292;2023-03-01T03:38:50;-1.00;99.90
1800;DHT22;919;48.274;12.292;2023-03-01T03:41:18;-1.10;99.90
1800;DHT22;919;48.274;12.292;2023-03-01T03:43:44;-1.00;99.90
1800;DHT22;919;48.274;12.292;2023-03-01T03:46:12;-1.10;99.90
1800;DHT22;919;48.274;12.292;2023-03-01T03:48:41;-1.10;99.90
1800;DHT22;919;48.274;12.292;2023-03-01T03:51:12;-1.10;99.90
1800;DHT22;919;48.274;12.292;2023-03-01T03:53:39;-1.00;99.90
1800;DHT22;919;48.274;12.292;2023-03-01T03:56:06;-1.10;99.90
1800;DHT22;919;48.274;12.292;2023-03-01T03:58:33;-1.10;99.90
1800;DHT22;919;48.274;12.292;2023-03-01T04:01:00;-1.10;99.90
1800;DHT22;919;48.274;12.292;2023-03-01T04:03:28;-1.20;99.90
1800;DHT22;919;48.274;12.292;2023-03-01T04:05:57;-1.10;99.90
1800;DHT22;919;48.274;12.292;2023-03-01T04:08:26;-1.20;99.90
1800;DHT22;919;48.274;12.292;2023-03-01T04:10:57;-1.30;99.90
1800;DHT22;919;48.274;12.292;2023-03-01T04:13:24;-1.20;99.90
1800;DHT22;919;48.274;12.292;2023-03-01T04:15:52;-1.20;99.90
1800;DHT22;919;48.274;12.292;2023-03-01T04:18:22;-1.20;99.90
1800;DHT22;919;48.274;12.292;2023-03-01T04:20:50;-1.20;99.90
1800;DHT22;919;48.274;12.292;2023-03-01T04:23:21;-1.10;99.90
1800;DHT22;919;48.274;12.292;2023-03-01T04:25:50;-1.20;99.90
1800;DHT22;919;48.274;12.292;2023-03-01T04:28:19;-1.20;99.90
1800;DHT22;919;48.274;12.292;2023-03-01T04:30:46;-1.20;99.90
1800;DHT22;919;48.274;12.292;2023-03-01T04:33:13;-1.20;99.90
1800;DHT22;919;48.274;12.292;2023-03-01T04:35:40;-1.20;99.90
1800;DHT22;919;48.274;12.292;2023-03-01T04:38:06;-1.20;99.90
1800;DHT22;919;48.274;12.292;2023-03-01T04:40:33;-1.30;99.90
1800;DHT22;919;48.274;12.292;2023-03-01T04:43:02;-1.30;99.90
1800;DHT22;919;48.274;12.292;2023-03-01T04:45:32;-1.30;99.90
1800;DHT22;919;48.274;12.292;2023-03-01T04:48:00;-1.30;99.90
1800;DHT22;919;48.274;12.292;2023-03-01T04:50:26;-1.40;99.90
1800;DHT22;919;48.274;12.292;2023-03-01T04:52:53;-1.30;99.90
1800;DHT22;919;48.274;12.292;2023-03-01T04:55:24;-1.40;99.90
1800;DHT22;919;48.274;12.292;2023-03-01T04:57:51;-1.40;99.90
1800;DHT22;919;48.274;12.292;2023-03-01T05:00:20;-1.50;99.90
1800;DHT22;919;48.274;12.292;2023-03-01T05:02:48;-1.50;99.90
1800;DHT22;919;48.274;12.292;2023-03-01T05:05:19;-1.50;99.90
1800;DHT22;919;48.274;12.292;2023-03-01T05:07:46;-1.60;99.90
1800;DHT22;919;48.274;12.292;2023-03-01T05:10:13;-1.60;99.90
1800;DHT22;919;48.274;12.292;2023-03-01T05:12:39;-1.60;99.90
1800;DHT22;919;48.274;12.292;2023-03-01T05:15:07;-1.50;99.90
1800;DHT22;919;48.274;12.292;2023-03-01T05:17:35;-1.50;99.90
1800;DHT22;919;48.274;12.292;2023-03-01T05:20:02;-1.40;99.90
1800;DHT22;919;48.274;12.292;2023-03-01T05:22:32;-1.50;99.90
1800;DHT22;919;48.274;12.292;2023-03-01T05:24:59;-1.40;99.90
1800;DHT22;919;48.274;12.292;2023-03-01T05:27:25;-1.40;99.90
1800;DHT22;919;48.274;12.292;2023-03-01T05:29:52;-1.40;99.90
1800;DHT22;919;48.274;12.292;2023-03-01T05:32:19;-1.40;99.90
1800;DHT22;919;48.274;12.292;2023-03-01T05:34:47;-1.30;99.90
1800;DHT22;919;48.274;12.292;2023-03-01T05:37:14;-1.30;99.90
1800;DHT22;919;48.274;12.292;2023-03-01T05:39:41;-1.30;99.90
1800;DHT22;919;48.274;12.292;2023-03-01T05:42:10;-1.20;99.90
1800;DHT22;919;48.274;12.292;2023-03-01T05:44:37;-1.20;99.90
1800;DHT22;919;48.274;12.292;2023-03-01T05:47:04;-1.20;99.90
1800;DHT22;919;48.274;12.292;2023-03-01T05:49:31;-1.20;99.90
1800;DHT22;919;48.274;12.292;2023-03-01T05:51:59;-1.10;99.90
1800;DHT22;919;48.274;12.292;2023-03-01T05:54:26;-1.20;99.90
1800;DHT22;919;48.274;12.292;2023-03-01T05:56:53;-1.10;99.90
1800;DHT22;919;48.274;12.292;2023-03-01T05:59:20;-1.10;99.90
1800;DHT22;919;48.274;12.292;2023-03-01T06:01:46;-1.10;99.90
1800;DHT22;919;48.274;12.292;2023-03-01T06:04:13;-1.00;99.90
1800;DHT22;919;48.274;12.292;2023-03-01T06:06:40;-1.10;99.90
1800;DHT22;919;48.274;12.292;2023-03-01T06:09:08;-1.10;99.90
1800;DHT22;919;48.274;12.292;2023-03-01T06:11:36;-1.00;99.90
1800;DHT22;919;48.274;12.292;2023-03-01T06:14:03;-1.00;99.90
1800;DHT22;919;48.274;12.292;2023-03-01T06:16:29;-1.00;99.90
1800;DHT22;919;48.274;12.292;2023-03-01T06:18:56;-1.00;99.90
1800;DHT22;919;48.274;12.292;2023-03-01T06:21:23;-1.10;99.90
1800;DHT22;919;48.274;12.292;2023-03-01T06:23:49;-1.10;99.90
1800;DHT22;919;48.274;12.292;2023-03-01T06:26:18;-1.10;99.90
1800;DHT22;919;48.274;12.292;2023-03-01T06:28:45;-1.20;99.90
1800;DHT22;919;48.274;12.292;2023-03-01T06:31:12;-1.20;99.90
1800;DHT22;919;48.274;12.292;2023-03-01T06:33:39;-1.10;99.90
1800;DHT22;919;48.274;12.292;2023-03-01T06:36:06;-1.20;99.90
1800;DHT22;919;48.274;12.292;2023-03-01T06:38:33;-1.20;99.90
1800;DHT22;919;48.274;12.292;2023-03-01T06:41:00;-1.30;99.90
1800;DHT22;919;48.274;12.292;2023-03-01T06:43:28;-1.20;99.90
1800;DHT22;919;48.274;12.292;2023-03-01T06:45:55;-1.20;99.90
1800;DHT22;919;48.274;12.292;2023-03-01T06:48:22;-1.20;99.90
1800;DHT22;919;48.274;12.292;2023-03-01T06:50:49;-1.20;99.90
1800;DHT22;919;48.274;12.292;2023-03-01T06:53:15;-1.10;99.90
1800;DHT22;919;48.274;12.292;2023-03-01T06:55:42;-1.10;99.90
1800;DHT22;919;48.274;12.292;2023-03-01T06:58:09;-1.00;99.90
1800;DHT22;919;48.274;12.292;2023-03-01T07:00:37;-0.90;99.90
1800;DHT22;919;48.274;12.292;2023-03-01T07:03:06;-0.80;99.90
1800;DHT22;919;48.274;12.292;2023-03-01T07:05:33;-0.70;99.90
1800;DHT22;919;48.274;12.292;2023-03-01T07:08:00;-0.70;99.90
1800;DHT22;919;48.274;12.292;2023-03-01T07:10:26;-0.60;99.90
1800;DHT22;919;48.274;12.292;2023-03-01T07:12:55;-0.60;99.90
1800;DHT22;919;48.274;12.292;2023-03-01T07:15:21;-0.50;99.90
1800;DHT22;919;48.274;12.292;2023-03-01T07:17:50;-0.50;99.90
1800;DHT22;919;48.274;12.292;2023-03-01T07:20:17;-0.40;99.90
1800;DHT22;919;48.274;12.292;2023-03-01T07:22:44;-0.30;99.90
1800;DHT22;919;48.274;12.292;2023-03-01T07:25:11;-0.20;99.90
1800;DHT22;919;48.274;12.292;2023-03-01T07:27:37;-0.20;99.90
1800;DHT22;919;48.274;12.292;2023-03-01T07:30:05;-0.20;99.90
1800;DHT22;919;48.274;12.292;2023-03-01T07:32:32;-0.20;99.90
1800;DHT22;919;48.274;12.292;2023-03-01T07:35:00;-0.10;99.90
1800;DHT22;919;48.274;12.292;2023-03-01T07:37:27;0.00;99.90
1800;DHT22;919;48.274;12.292;2023-03-01T07:39:54;0.00;99.90
1800;DHT22;919;48.274;12.292;2023-03-01T07:42:20;0.00;99.90
1800;DHT22;919;48.274;12.292;2023-03-01T07:44:47;0.00;99.90
1800;DHT22;919;48.274;12.292;2023-03-01T07:47:13;0.00;99.90
1800;DHT22;919;48.274;12.292;2023-03-01T07:49:40;0.10;99.90
1800;DHT22;919;48.274;12.292;2023-03-01T07:52:09;0.10;99.90
1800;DHT22;919;48.274;12.292;2023-03-01T07:54:37;0.30;99.90
1800;DHT22;919;48.274;12.292;2023-03-01T07:57:03;0.30;99.90
1800;DHT22;919;48.274;12.292;2023-03-01T07:59:30;0.20;99.90
1800;DHT22;919;48.274;12.292;2023-03-01T08:01:58;0.40;99.90
1800;DHT22;919;48.274;12.292;2023-03-01T08:04:24;0.50;99.90
1800;DHT22;919;48.274;12.292;2023-03-01T08:06:52;0.60;99.90
1800;DHT22;919;48.274;12.292;2023-03-01T08:09:20;0.70;99.90
1800;DHT22;919;48.274;12.292;2023-03-01T08:11:47;0.80;99.90
1800;DHT22;919;48.274;12.292;2023-03-01T08:14:14;0.90;99.90
1800;DHT22;919;48.274;12.292;2023-03-01T08:16:40;0.90;99.90
1800;DHT22;919;48.274;12.292;2023-03-01T08:19:09;1.00;99.90
1800;DHT22;919;48.274;12.292;2023-03-01T08:21:36;1.00;99.90
1800;DHT22;919;48.274;12.292;2023-03-01T08:24:04;1.10;99.90
1800;DHT22;919;48.274;12.292;2023-03-01T08:26:33;1.20;99.90
1800;DHT22;919;48.274;12.292;2023-03-01T08:29:00;1.20;99.90
1800;DHT22;919;48.274;12.292;2023-03-01T08:31:28;1.40;99.90
1800;DHT22;919;48.274;12.292;2023-03-01T08:33:57;1.40;99.90
1800;DHT22;919;48.274;12.292;2023-03-01T08:36:26;1.40;99.90
1800;DHT22;919;48.274;12.292;2023-03-01T08:38:53;1.40;99.90
1800;DHT22;919;48.274;12.292;2023-03-01T08:41:20;1.40;99.90
1800;DHT22;919;48.274;12.292;2023-03-01T08:43:48;1.60;99.90
1800;DHT22;919;48.274;12.292;2023-03-01T08:46:15;1.70;99.90
1800;DHT22;919;48.274;12.292;2023-03-01T08:48:42;1.70;99.90
1800;DHT22;919;48.274;12.292;2023-03-01T08:51:10;1.80;99.90
1800;DHT22;919;48.274;12.292;2023-03-01T08:53:38;1.80;99.90
1800;DHT22;919;48.274;12.292;2023-03-01T08:56:05;1.80;99.90
1800;DHT22;919;48.274;12.292;2023-03-01T08:58:31;1.70;99.90
1800;DHT22;919;48.274;12.292;2023-03-01T09:01:00;1.80;99.90
1800;DHT22;919;48.274;12.292;2023-03-01T09:03:27;2.10;99.90
1800;DHT22;919;48.274;12.292;2023-03-01T09:05:59;2.30;99.90
1800;DHT22;919;48.274;12.292;2023-03-01T09:08:27;2.40;99.90
1800;DHT22;919;48.274;12.292;2023-03-01T09:10:53;2.40;99.90
1800;DHT22;919;48.274;12.292;2023-03-01T09:13:20;2.40;99.90
1800;DHT22;919;48.274;12.292;2023-03-01T09:15:49;2.50;99.90
1800;DHT22;919;48.274;12.292;2023-03-01T09:18:17;2.50;99.90
1800;DHT22;919;48.274;12.292;2023-03-01T09:20:44;2.50;99.90
1800;DHT22;919;48.274;12.292;2023-03-01T09:23:10;2.60;99.90
1800;DHT22;919;48.274;12.292;2023-03-01T09:25:37;2.70;99.90
1800;DHT22;919;48.274;12.292;2023-03-01T09:28:04;2.60;99.90
1800;DHT22;919;48.274;12.292;2023-03-01T09:30:31;2.60;99.90
1800;DHT22;919;48.274;12.292;2023-03-01T09:32:58;2.50;99.90
1800;DHT22;919;48.274;12.292;2023-03-01T09:35:26;2.70;99.90
1800;DHT22;919;48.274;12.292;2023-03-01T09:37:53;2.70;99.90
1800;DHT22;919;48.274;12.292;2023-03-01T09:40:22;2.80;99.90
1800;DHT22;919;48.274;12.292;2023-03-01T09:42:54;3.00;99.90
1800;DHT22;919;48.274;12.292;2023-03-01T09:45:27;3.10;99.90
1800;DHT22;919;48.274;12.292;2023-03-01T09:47:55;3.10;99.90
1800;DHT22;919;48.274;12.292;2023-03-01T09:50:23;3.20;99.90
1800;DHT22;919;48.274;12.292;2023-03-01T09:53:00;3.20;99.90
1800;DHT22;919;48.274;12.292;2023-03-01T09:55:30;3.30;99.90
1800;DHT22;919;48.274;12.292;2023-03-01T09:58:04;3.10;99.90
1800;DHT22;919;48.274;12.292;2023-03-01T10:00:37;3.40;99.90
1800;DHT22;919;48.274;12.292;2023-03-01T10:03:14;3.50;99.90
1800;DHT22;919;48.274;12.292;2023-03-01T10:05:49;3.60;99.90
1800;DHT22;919;48.274;12.292;2023-03-01T10:08:31;3.60;99.90
1800;DHT22;919;48.274;12.292;2023-03-01T10:11:02;3.70;99.90
1800;DHT22;919;48.274;12.292;2023-03-01T10:13:36;3.80;99.90
1800;DHT22;919;48.274;12.292;2023-03-01T10:16:09;3.60;99.90
1800;DHT22;919;48.274;12.292;2023-03-01T10:18:37;3.50;99.90
1800;DHT22;919;48.274;12.292;2023-03-01T10:21:13;3.80;99.90
1800;DHT22;919;48.274;12.292;2023-03-01T10:23:41;3.80;99.90
1800;DHT22;919;48.274;12.292;2023-03-01T10:26:31;3.70;99.90
1800;DHT22;919;48.274;12.292;2023-03-01T10:29:02;3.80;99.90
1800;DHT22;919;48.274;12.292;2023-03-01T10:31:38;3.70;99.90
1800;DHT22;919;48.274;12.292;2023-03-01T10:34:10;4.00;99.90
1800;DHT22;919;48.274;12.292;2023-03-01T10:36:38;4.30;99.90
1800;DHT22;919;48.274;12.292;2023-03-01T10:39:14;4.40;99.90
1800;DHT22;919;48.274;12.292;2023-03-01T10:42:03;4.30;99.90
1800;DHT22;919;48.274;12.292;2023-03-01T10:44:39;4.50;99.90
1800;DHT22;919;48.274;12.292;2023-03-01T10:47:13;4.50;99.90
1800;DHT22;919;48.274;12.292;2023-03-01T10:49:55;4.60;99.90
1800;DHT22;919;48.274;12.292;2023-03-01T10:52:24;4.60;99.90
1800;DHT22;919;48.274;12.292;2023-03-01T10:54:55;4.50;99.90
1800;DHT22;919;48.274;12.292;2023-03-01T10:57:29;4.60;99.90
1800;DHT22;919;48.274;12.292;2023-03-01T11:00:21;4.80;99.90
1800;DHT22;919;48.274;12.292;2023-03-01T11:02:50;4.90;99.90
1800;DHT22;919;48.274;12.292;2023-03-01T11:05:20;5.00;99.90
1800;DHT22;919;48.274;12.292;2023-03-01T11:07:50;5.00;99.90
1800;DHT22;919;48.274;12.292;2023-03-01T11:10:21;5.00;99.90
1800;DHT22;919;48.274;12.292;2023-03-01T11:12:48;4.90;99.90
1800;DHT22;919;48.274;12.292;2023-03-01T11:15:24;5.00;99.90
1800;DHT22;919;48.274;12.292;2023-03-01T11:17:51;5.10;99.90
1800;DHT22;919;48.274;12.292;2023-03-01T11:20:25;5.30;99.90
1800;DHT22;919;48.274;12.292;2023-03-01T11:22:54;5.50;99.90
1800;DHT22;919;48.274;12.292;2023-03-01T11:25:25;5.50;99.90
1800;DHT22;919;48.274;12.292;2023-03-01T11:27:53;5.50;99.90
1800;DHT22;919;48.274;12.292;2023-03-01T11:30:23;5.50;99.90
1800;DHT22;919;48.274;12.292;2023-03-01T11:32:56;5.60;99.90
1800;DHT22;919;48.274;12.292;2023-03-01T11:35:28;5.60;99.90
1800;DHT22;919;48.274;12.292;2023-03-01T11:38:03;5.80;99.90
1800;DHT22;919;48.274;12.292;2023-03-01T11:40:39;6.00;99.90
1800;DHT22;919;48.274;12.292;2023-03-01T11:43:15;5.80;99.90
1800;DHT22;919;48.274;12.292;2023-03-01T11:45:55;5.80;99.90
1800;DHT22;919;48.274;12.292;2023-03-01T11:48:37;5.90;99.90
1800;DHT22;919;48.274;12.292;2023-03-01T11:51:15;6.00;99.90
1800;DHT22;919;48.274;12.292;2023-03-01T11:53:54;6.00;99.90
1800;DHT22;919;48.274;12.292;2023-03-01T11:56:31;6.10;99.90
1800;DHT22;919;48.274;12.292;2023-03-01T11:59:16;6.20;99.90
1800;DHT22;919;48.274;12.292;2023-03-01T12:01:55;6.10;99.90
1800;DHT22;919;48.274;12.292;2023-03-01T12:04:58;6.20;99.90
1800;DHT22;919;48.274;12.292;2023-03-01T12:07:34;6.30;99.90
1800;DHT22;919;48.274;12.292;2023-03-01T12:10:23;6.30;99.90
1800;DHT22;919;48.274;12.292;2023-03-01T12:13:13;6.40;99.90
1800;DHT22;919;48.274;12.292;2023-03-01T12:15:51;6.50;99.90
1800;DHT22;919;48.274;12.292;2023-03-01T12:18:40;6.60;99.90
1800;DHT22;919;48.274;12.292;2023-03-01T12:21:16;6.90;99.90
1800;DHT22;919;48.274;12.292;2023-03-01T12:26:38;7.10;99.90
1800;DHT22;919;48.274;12.292;2023-03-01T12:29:25;7.00;99.90
1800;DHT22;919;48.274;12.292;2023-03-01T12:32:13;7.00;99.90
1800;DHT22;919;48.274;12.292;2023-03-01T12:34:56;7.00;99.90
1800;DHT22;919;48.274;12.292;2023-03-01T12:37:36;7.00;99.90
1800;DHT22;919;48.274;12.292;2023-03-01T12:40:33;7.10;99.90
1800;DHT22;919;48.274;12.292;2023-03-01T12:43:22;7.10;99.90
1800;DHT22;919;48.274;12.292;2023-03-01T12:46:01;7.10;99.90
1800;DHT22;919;48.274;12.292;2023-03-01T12:48:41;7.20;99.90
1800;DHT22;919;48.274;12.292;2023-03-01T12:51:14;7.20;99.90
1800;DHT22;919;48.274;12.292;2023-03-01T12:53:44;7.20;99.90
1800;DHT22;919;48.274;12.292;2023-03-01T12:56:16;7.30;99.90
1800;DHT22;919;48.274;12.292;2023-03-01T12:58:51;7.40;99.90
1800;DHT22;919;48.274;12.292;2023-03-01T13:01:31;7.50;99.90
1800;DHT22;919;48.274;12.292;2023-03-01T13:07:22;7.50;99.90
1800;DHT22;919;48.274;12.292;2023-03-01T13:09:59;7.50;99.90
1800;DHT22;919;48.274;12.292;2023-03-01T13:12:50;7.70;99.90
1800;DHT22;919;48.274;12.292;2023-03-01T13:15:34;7.70;99.90
1800;DHT22;919;48.274;12.292;2023-03-01T13:18:04;7.70;99.90
1800;DHT22;919;48.274;12.292;2023-03-01T13:20:52;7.80;99.90
1800;DHT22;919;48.274;12.292;2023-03-01T13:23:28;7.90;99.90
1800;DHT22;919;48.274;12.292;2023-03-01T13:26:12;8.00;99.90
1800;DHT22;919;48.274;12.292;2023-03-01T13:28:51;8.00;99.90
1800;DHT22;919;48.274;12.292;2023-03-01T13:34:48;8.10;99.90
1800;DHT22;919;48.274;12.292;2023-03-01T13:37:21;8.00;99.90
1800;DHT22;919;48.274;12.292;2023-03-01T13:39:48;8.10;99.90
1800;DHT22;919;48.274;12.292;2023-03-01T13:42:40;8.40;99.90
1800;DHT22;919;48.274;12.292;2023-03-01T13:45:32;8.10;99.90
1800;DHT22;919;48.274;12.292;2023-03-01T13:48:02;8.10;99.90
1800;DHT22;919;48.274;12.292;2023-03-01T13:50:36;8.00;99.90
1800;DHT22;919;48.274;12.292;2023-03-01T13:53:06;8.10;99.90
1800;DHT22;919;48.274;12.292;2023-03-01T13:55:37;8.10;99.90
1800;DHT22;919;48.274;12.292;2023-03-01T13:58:15;8.20;99.90
1800;DHT22;919;48.274;12.292;2023-03-01T14:00:42;8.20;99.90
1800;DHT22;919;48.274;12.292;2023-03-01T14:03:11;8.20;99.90
1800;DHT22;919;48.274;12.292;2023-03-01T14:05:41;8.00;99.90
1800;DHT22;919;48.274;12.292;2023-03-01T14:08:22;8.00;99.90
1800;DHT22;919;48.274;12.292;2023-03-01T14:10:57;8.10;99.90
1800;DHT22;919;48.274;12.292;2023-03-01T14:13:39;8.20;99.90
1800;DHT22;919;48.274;12.292;2023-03-01T14:16:20;8.20;99.90
1800;DHT22;919;48.274;12.292;2023-03-01T14:18:57;8.20;99.90
1800;DHT22;919;48.274;12.292;2023-03-01T14:21:29;8.20;99.90
1800;DHT22;919;48.274;12.292;2023-03-01T14:23:57;8.30;99.90
1800;DHT22;919;48.274;12.292;2023-03-01T14:26:24;8.30;99.90
1800;DHT22;919;48.274;12.292;2023-03-01T14:28:51;8.30;99.90
1800;DHT22;919;48.274;12.292;2023-03-01T14:31:35;8.30;99.90
1800;DHT22;919;48.274;12.292;2023-03-01T14:34:02;8.10;99.90
1800;DHT22;919;48.274;12.292;2023-03-01T14:36:32;8.00;99.90
1800;DHT22;919;48.274;12.292;2023-03-01T14:38:59;7.90;99.90
1800;DHT22;919;48.274;12.292;2023-03-01T14:41:33;7.90;99.90
1800;DHT22;919;48.274;12.292;2023-03-01T14:44:03;8.10;99.90
1800;DHT22;919;48.274;12.292;2023-03-01T14:46:33;8.20;99.90
1800;DHT22;919;48.274;12.292;2023-03-01T14:49:03;8.10;99.90
1800;DHT22;919;48.274;12.292;2023-03-01T14:51:36;8.10;99.90
1800;DHT22;919;48.274;12.292;2023-03-01T14:54:05;8.10;99.90
1800;DHT22;919;48.274;12.292;2023-03-01T14:56:44;8.20;99.90
1800;DHT22;919;48.274;12.292;2023-03-01T14:59:11;8.40;99.90
1800;DHT22;919;48.274;12.292;2023-03-01T15:01:39;8.40;99.90
1800;DHT22;919;48.274;12.292;2023-03-01T15:04:11;8.30;99.90
1800;DHT22;919;48.274;12.292;2023-03-01T15:06:39;8.30;99.90
1800;DHT22;919;48.274;12.292;2023-03-01T15:09:12;8.40;99.90
1800;DHT22;919;48.274;12.292;2023-03-01T15:11:40;8.40;99.90
1800;DHT22;919;48.274;12.292;2023-03-01T15:14:39;8.40;99.90
1800;DHT22;919;48.274;12.292;2023-03-01T15:17:20;8.40;99.90
1800;DHT22;919;48.274;12.292;2023-03-01T15:19:47;8.30;99.90
1800;DHT22;919;48.274;12.292;2023-03-01T15:22:16;8.30;99.90
1800;DHT22;919;48.274;12.292;2023-03-01T15:24:47;8.20;99.90
1800;DHT22;919;48.274;12.292;2023-03-01T15:27:17;8.20;99.90
1800;DHT22;919;48.274;12.292;2023-03-01T15:29:49;8.10;99.90
1800;DHT22;919;48.274;12.292;2023-03-01T15:32:29;8.10;99.90
1800;DHT22;919;48.274;12.292;2023-03-01T15:34:57;8.10;99.90
1800;DHT22;919;48.274;12.292;2023-03-01T15:37:39;8.00;99.90
1800;DHT22;919;48.274;12.292;2023-03-01T15:40:19;7.90;99.90
1800;DHT22;919;48.274;12.292;2023-03-01T15:42:46;7.90;99.90
1800;DHT22;919;48.274;12.292;2023-03-01T15:45:22;7.90;99.90
1800;DHT22;919;48.274;12.292;2023-03-01T15:47:50;7.90;99.90
1800;DHT22;919;48.274;12.292;2023-03-01T15:50:21;7.90;99.90
1800;DHT22;919;48.274;12.292;2023-03-01T15:52:50;7.80;99.90
1800;DHT22;919;48.274;12.292;2023-03-01T15:55:19;7.80;99.90
1800;DHT22;919;48.274;12.292;2023-03-01T15:57:46;7.70;99.90
1800;DHT22;919;48.274;12.292;2023-03-01T16:00:14;7.70;99.90
1800;DHT22;919;48.274;12.292;2023-03-01T16:02:43;7.70;99.90
1800;DHT22;919;48.274;12.292;2023-03-01T16:05:17;7.60;99.90
1800;DHT22;919;48.274;12.292;2023-03-01T16:07:44;7.50;99.90
1800;DHT22;919;48.274;12.292;2023-03-01T16:10:13;7.50;99.90
1800;DHT22;919;48.274;12.292;2023-03-01T16:12:39;7.40;99.90
1800;DHT22;919;48.274;12.292;2023-03-01T16:15:14;7.30;99.90
1800;DHT22;919;48.274;12.292;2023-03-01T16:17:43;7.30;99.90
1800;DHT22;919;48.274;12.292;2023-03-01T16:20:11;7.20;99.90
1800;DHT22;919;48.274;12.292;2023-03-01T16:22:37;7.10;99.90
1800;DHT22;919;48.274;12.292;2023-03-01T16:25:05;7.20;99.90
1800;DHT22;919;48.274;12.292;2023-03-01T16:27:34;7.10;99.90
1800;DHT22;919;48.274;12.292;2023-03-01T16:30:01;7.20;99.90
1800;DHT22;919;48.274;12.292;2023-03-01T16:32:28;7.20;99.90
1800;DHT22;919;48.274;12.292;2023-03-01T16:34:55;7.20;99.90
1800;DHT22;919;48.274;12.292;2023-03-01T16:37:21;7.10;99.90
1800;DHT22;919;48.274;12.292;2023-03-01T16:39:48;7.00;99.90
1800;DHT22;919;48.274;12.292;2023-03-01T16:42:17;6.80;99.90